createdAt,value
2022-08-21T00:00:35.601Z,95.98
2022-08-21T00:01:35.593Z,96.56
2022-08-21T00:02:35.616Z,96.27
2022-08-21T00:03:35.599Z,95.98
2022-08-21T00:04:35.588Z,96.56
2022-08-21T00:05:35.567Z,96.37
2022-08-21T00:06:35.568Z,96.75
2022-08-21T00:07:35.554Z,97.33
2022-08-21T00:08:35.550Z,97.14
2022-08-21T00:09:35.546Z,97.52
2022-08-21T00:10:35.533Z,97.04
2022-08-21T00:11:35.569Z,97.04
2022-08-21T00:12:35.533Z,96.85
2022-08-21T00:13:35.556Z,96.94
2022-08-21T00:14:35.587Z,96.56
2022-08-21T00:15:35.529Z,96.66
2022-08-21T00:16:35.533Z,96.47
2022-08-21T00:17:35.514Z,96.47
2022-08-21T00:18:35.504Z,96.37
2022-08-21T00:19:35.519Z,96.66
2022-08-21T00:20:35.498Z,97.33
2022-08-21T00:21:35.524Z,97.04
2022-08-21T00:22:35.512Z,96.56
2022-08-21T00:23:35.490Z,97.04
2022-08-21T00:24:35.520Z,96.85
2022-08-21T00:25:35.475Z,97.62
2022-08-21T00:26:35.499Z,96.75
2022-08-21T00:27:35.479Z,97.24
2022-08-21T00:28:35.493Z,96.85
2022-08-21T00:29:35.487Z,96.94
2022-08-21T00:30:35.459Z,97.24
2022-08-21T00:31:35.475Z,97.14
2022-08-21T00:32:35.466Z,97.04
2022-08-21T00:33:35.449Z,96.94
2022-08-21T00:34:35.461Z,97.33
2022-08-21T00:35:35.471Z,97.52
2022-08-21T00:36:35.450Z,97.76
2022-08-21T00:37:35.456Z,98.14
2022-08-21T00:38:35.471Z,97.38
2022-08-21T00:39:35.462Z,98.05
2022-08-21T00:40:35.461Z,97.47
2022-08-21T00:41:37.471Z,97.42
2022-08-21T00:42:35.443Z,97.76
2022-08-21T00:43:35.425Z,98.05
2022-08-21T00:44:35.418Z,97.86
2022-08-21T00:45:35.409Z,97.57
2022-08-21T00:46:35.401Z,98.44
2022-08-21T00:47:35.421Z,98.82
2022-08-21T00:48:35.430Z,99.63
2022-08-21T00:49:35.379Z,99.92
2022-08-21T00:50:35.416Z,99.99
2022-08-21T00:51:38.502Z,99.99
2022-08-21T00:52:35.397Z,99.99
2022-08-21T00:53:35.369Z,99.99
2022-08-21T00:54:35.369Z,99.99
2022-08-21T00:55:35.419Z,99.99
2022-08-21T00:56:35.403Z,99.99
2022-08-21T00:57:35.349Z,99.99
2022-08-21T00:58:35.376Z,99.92
2022-08-21T00:59:35.370Z,99.83
2022-08-21T01:00:35.362Z,99.11
2022-08-21T01:01:35.364Z,99.21
2022-08-21T01:02:35.370Z,99.30
2022-08-21T01:03:35.396Z,99.01
2022-08-21T01:04:35.322Z,98.82
2022-08-21T01:05:35.320Z,99.01
2022-08-21T01:06:35.316Z,99.11
2022-08-21T01:07:35.310Z,98.91
2022-08-21T01:08:35.322Z,98.44
2022-08-21T01:09:35.342Z,98.24
2022-08-21T01:10:35.320Z,98.05
2022-08-21T01:11:35.322Z,99.11
2022-08-21T01:12:35.300Z,99.01
2022-08-21T01:13:35.307Z,98.63
2022-08-21T01:14:35.312Z,98.72
2022-08-21T01:15:35.281Z,99.30
2022-08-21T01:16:35.297Z,99.83
2022-08-21T01:17:35.296Z,99.92
2022-08-21T01:18:35.273Z,99.99
2022-08-21T01:19:35.267Z,99.92
2022-08-21T01:20:35.274Z,99.99
2022-08-21T01:21:35.265Z,99.92
2022-08-21T01:22:35.292Z,99.73
2022-08-21T01:23:35.240Z,99.99
2022-08-21T01:24:35.263Z,99.73
2022-08-21T01:25:35.264Z,99.98
2022-08-21T01:26:35.233Z,99.73
2022-08-21T01:27:35.222Z,98.96
2022-08-21T01:28:35.236Z,99.99
2022-08-21T01:29:35.232Z,99.83
2022-08-21T01:30:35.223Z,99.63
2022-08-21T01:31:35.209Z,99.83
2022-08-21T01:32:35.225Z,99.99
2022-08-21T01:33:35.207Z,99.99
2022-08-21T01:34:35.195Z,99.92
2022-08-21T01:35:35.217Z,99.92
2022-08-21T01:36:35.190Z,99.92
2022-08-21T01:37:35.237Z,99.92
2022-08-21T01:38:35.216Z,99.99
2022-08-21T01:39:35.204Z,99.99
2022-08-21T01:40:35.219Z,99.99
2022-08-21T01:41:35.187Z,99.63
2022-08-21T01:42:35.164Z,99.73
2022-08-21T01:43:39.775Z,99.99
2022-08-21T01:44:35.178Z,99.92
2022-08-21T01:45:35.146Z,99.99
2022-08-21T01:46:35.170Z,99.99
2022-08-21T01:47:35.159Z,99.99
2022-08-21T01:48:35.161Z,99.99
2022-08-21T01:49:35.148Z,99.99
2022-08-21T01:50:35.130Z,99.99
2022-08-21T01:51:35.144Z,99.99
2022-08-21T01:52:35.121Z,99.99
2022-08-21T01:53:35.152Z,99.99
2022-08-21T01:54:35.137Z,99.99
2022-08-21T01:55:35.107Z,99.99
2022-08-21T01:56:35.106Z,99.99
2022-08-21T01:57:35.113Z,99.99
2022-08-21T01:58:35.112Z,99.99
2022-08-21T01:59:35.117Z,99.99
2022-08-21T02:00:35.164Z,99.99
2022-08-21T02:01:35.127Z,99.99
2022-08-21T02:02:35.087Z,99.99
2022-08-21T02:03:36.076Z,99.99
2022-08-21T02:04:35.067Z,99.99
2022-08-21T02:05:35.080Z,99.99
2022-08-21T02:06:35.068Z,99.99
2022-08-21T02:07:35.073Z,99.99
2022-08-21T02:08:35.077Z,99.99
2022-08-21T02:09:35.075Z,99.99
2022-08-21T02:10:35.045Z,99.99
2022-08-21T02:11:35.034Z,99.99
2022-08-21T02:12:35.038Z,99.99
2022-08-21T02:13:35.047Z,99.99
2022-08-21T02:14:35.028Z,99.99
2022-08-21T02:15:35.054Z,99.99
2022-08-21T02:16:35.064Z,99.99
2022-08-21T02:17:35.007Z,99.99
2022-08-21T02:18:35.012Z,99.99
2022-08-21T02:19:39.559Z,99.99
2022-08-21T02:20:35.015Z,99.99
2022-08-21T02:21:35.000Z,99.99
2022-08-21T02:22:35.012Z,99.99
2022-08-21T02:23:34.983Z,99.99
2022-08-21T02:24:34.979Z,99.99
2022-08-21T02:25:34.996Z,99.99
2022-08-21T02:26:34.997Z,99.99
2022-08-21T02:27:34.966Z,99.99
2022-08-21T02:28:34.994Z,99.99
2022-08-21T02:29:34.951Z,99.99
2022-08-21T02:30:34.985Z,99.99
2022-08-21T02:31:34.960Z,99.99
2022-08-21T02:32:34.947Z,99.99
2022-08-21T02:33:34.959Z,99.99
2022-08-21T02:34:34.962Z,99.99
2022-08-21T02:35:34.944Z,99.99
2022-08-21T02:36:34.927Z,99.99
2022-08-21T02:37:34.957Z,99.99
2022-08-21T02:38:34.937Z,99.99
2022-08-21T02:39:34.992Z,99.99
2022-08-21T02:40:34.903Z,99.99
2022-08-21T02:41:34.896Z,99.99
2022-08-21T02:42:34.896Z,99.99
2022-08-21T02:43:34.893Z,99.99
2022-08-21T02:44:34.946Z,99.99
2022-08-21T02:45:34.929Z,99.99
2022-08-21T02:46:34.891Z,99.99
2022-08-21T02:47:34.885Z,99.99
2022-08-21T02:48:34.903Z,99.99
2022-08-21T02:49:34.872Z,99.99
2022-08-21T02:50:34.858Z,99.99
2022-08-21T02:51:34.878Z,99.99
2022-08-21T02:52:34.882Z,99.99
2022-08-21T02:53:34.880Z,99.99
2022-08-21T02:54:34.902Z,99.99
2022-08-21T02:55:34.870Z,99.99
2022-08-21T02:56:34.846Z,99.99
2022-08-21T02:57:34.843Z,99.99
2022-08-21T02:58:34.850Z,99.99
2022-08-21T02:59:34.817Z,99.99
2022-08-21T03:00:34.844Z,99.99
2022-08-21T03:01:34.896Z,99.99
2022-08-21T03:02:34.805Z,99.99
2022-08-21T03:03:34.829Z,99.99
2022-08-21T03:04:34.825Z,99.99
2022-08-21T03:05:34.788Z,99.99
2022-08-21T03:06:34.807Z,99.99
2022-08-21T03:07:34.793Z,99.99
2022-08-21T03:08:34.778Z,99.99
2022-08-21T03:09:34.781Z,99.99
2022-08-21T03:10:34.774Z,99.99
2022-08-21T03:11:34.762Z,99.99
2022-08-21T03:12:34.771Z,99.99
2022-08-21T03:13:34.783Z,99.99
2022-08-21T03:14:34.774Z,99.99
2022-08-21T03:15:34.773Z,99.99
2022-08-21T03:16:35.430Z,99.99
2022-08-21T03:17:34.730Z,99.99
2022-08-21T03:18:34.773Z,99.99
2022-08-21T03:19:34.722Z,99.99
2022-08-21T03:20:34.748Z,99.99
2022-08-21T03:21:34.745Z,99.99
2022-08-21T03:22:34.710Z,99.99
2022-08-21T03:23:34.719Z,99.99
2022-08-21T03:24:34.700Z,99.99
2022-08-21T03:25:40.365Z,99.99
2022-08-21T03:26:34.708Z,99.99
2022-08-21T03:27:34.692Z,99.99
2022-08-21T03:28:34.710Z,99.99
2022-08-21T03:29:34.672Z,99.99
2022-08-21T03:30:34.668Z,99.99
2022-08-21T03:31:34.669Z,99.99
2022-08-21T03:32:34.699Z,99.99
2022-08-21T03:33:34.696Z,99.99
2022-08-21T03:34:34.662Z,99.99
2022-08-21T03:35:34.668Z,99.99
2022-08-21T03:36:34.642Z,99.99
2022-08-21T03:37:34.663Z,99.99
2022-08-21T03:38:34.663Z,99.99
2022-08-21T03:39:34.671Z,99.99
2022-08-21T03:40:34.621Z,99.99
2022-08-21T03:41:34.648Z,99.99
2022-08-21T03:42:34.617Z,99.99
2022-08-21T03:43:34.641Z,99.99
2022-08-21T03:44:34.647Z,99.99
2022-08-21T03:45:34.609Z,99.99
2022-08-21T03:46:34.617Z,99.99
2022-08-21T03:47:34.605Z,99.99
2022-08-21T03:48:34.587Z,99.99
2022-08-21T03:49:34.580Z,99.99
2022-08-21T03:50:34.686Z,99.99
2022-08-21T03:51:34.583Z,99.99
2022-08-21T03:52:34.565Z,99.99
2022-08-21T03:53:34.574Z,99.99
2022-08-21T03:54:34.553Z,99.99
2022-08-21T03:55:34.550Z,99.99
2022-08-21T03:56:34.543Z,99.99
2022-08-21T03:57:34.550Z,99.99
2022-08-21T03:58:34.560Z,99.99
2022-08-21T03:59:34.540Z,99.99
2022-08-21T04:00:34.538Z,99.99
2022-08-21T04:01:34.565Z,99.99
2022-08-21T04:02:34.533Z,99.99
2022-08-21T04:03:34.528Z,99.99
2022-08-21T04:04:34.536Z,99.99
2022-08-21T04:05:34.529Z,99.99
2022-08-21T04:06:37.774Z,99.99
2022-08-21T04:07:34.509Z,99.99
2022-08-21T04:08:34.499Z,99.99
2022-08-21T04:09:34.523Z,99.99
2022-08-21T04:10:34.509Z,99.99
2022-08-21T04:11:34.477Z,99.99
2022-08-21T04:12:34.478Z,99.99
2022-08-21T04:13:34.490Z,99.99
2022-08-21T04:14:34.448Z,99.99
2022-08-21T04:15:34.464Z,99.99
2022-08-21T04:16:34.481Z,99.99
2022-08-21T04:17:34.436Z,99.99
2022-08-21T04:18:34.461Z,99.99
2022-08-21T04:19:34.452Z,99.99
2022-08-21T04:20:34.424Z,99.99
2022-08-21T04:21:34.417Z,99.99
2022-08-21T04:22:34.443Z,99.99
2022-08-21T04:23:34.408Z,99.99
2022-08-21T04:24:34.433Z,99.99
2022-08-21T04:25:34.458Z,99.99
2022-08-21T04:26:34.422Z,99.99
2022-08-21T04:27:34.403Z,99.99
2022-08-21T04:28:34.423Z,99.99
2022-08-21T04:29:37.147Z,99.99
2022-08-21T04:30:34.383Z,99.99
2022-08-21T04:31:34.392Z,99.99
2022-08-21T04:32:34.369Z,99.99
2022-08-21T04:33:34.390Z,99.99
2022-08-21T04:34:34.378Z,99.99
2022-08-21T04:35:34.371Z,99.99
2022-08-21T04:36:34.365Z,99.99
2022-08-21T04:37:34.336Z,99.99
2022-08-21T04:38:37.399Z,99.99
2022-08-21T04:39:34.466Z,99.99
2022-08-21T04:40:34.329Z,99.99
2022-08-21T04:41:34.326Z,99.99
2022-08-21T04:42:34.340Z,99.99
2022-08-21T04:43:34.316Z,99.99
2022-08-21T04:44:34.309Z,99.99
2022-08-21T04:45:34.324Z,99.99
2022-08-21T04:46:34.305Z,99.99
2022-08-21T04:47:36.837Z,99.99
2022-08-21T04:48:34.302Z,99.99
2022-08-21T04:49:34.280Z,99.99
2022-08-21T04:50:34.270Z,99.99
2022-08-21T04:51:34.288Z,99.99
2022-08-21T04:52:34.289Z,99.99
2022-08-21T04:53:34.278Z,99.99
2022-08-21T04:54:34.250Z,99.99
2022-08-21T04:55:34.276Z,99.99
2022-08-21T04:56:34.254Z,99.99
2022-08-21T04:57:48.083Z,99.99
2022-08-21T04:58:34.236Z,99.99
2022-08-21T04:59:34.253Z,99.99
2022-08-21T05:00:34.239Z,99.99
2022-08-21T05:01:34.306Z,99.99
2022-08-21T05:02:34.235Z,99.99
2022-08-21T05:03:34.211Z,99.99
2022-08-21T05:04:34.205Z,99.99
2022-08-21T05:05:34.194Z,99.99
2022-08-21T05:06:34.187Z,99.99
2022-08-21T05:07:42.637Z,99.99
2022-08-21T05:08:34.185Z,99.99
2022-08-21T05:09:34.193Z,99.99
2022-08-21T05:10:34.178Z,99.99
2022-08-21T05:11:34.177Z,99.99
2022-08-21T05:12:34.183Z,99.99
2022-08-21T05:13:34.167Z,99.99
2022-08-21T05:14:34.167Z,99.99
2022-08-21T05:15:34.146Z,99.99
2022-08-21T05:16:37.149Z,99.99
2022-08-21T05:17:34.132Z,99.99
2022-08-21T05:18:34.133Z,99.99
2022-08-21T05:19:34.167Z,99.99
2022-08-21T05:20:34.130Z,99.99
2022-08-21T05:21:34.138Z,99.99
2022-08-21T05:22:34.131Z,99.99
2022-08-21T05:23:34.108Z,99.99
2022-08-21T05:24:34.132Z,99.99
2022-08-21T05:25:34.111Z,99.99
2022-08-21T05:26:34.108Z,99.99
2022-08-21T05:27:34.081Z,99.99
2022-08-21T05:28:34.108Z,99.99
2022-08-21T05:29:34.074Z,99.99
2022-08-21T05:30:34.079Z,99.99
2022-08-21T05:31:34.089Z,99.99
2022-08-21T05:32:34.088Z,99.99
2022-08-21T05:33:34.067Z,99.99
2022-08-21T05:34:34.048Z,99.99
2022-08-21T05:35:34.065Z,99.99
2022-08-21T05:36:34.064Z,99.99
2022-08-21T05:37:34.045Z,99.99
2022-08-21T05:38:34.056Z,99.99
2022-08-21T05:40:06.683Z,99.99
2022-08-21T05:40:34.089Z,99.99
2022-08-21T05:41:34.282Z,99.99
2022-08-21T05:42:34.008Z,99.99
2022-08-21T05:43:34.028Z,99.99
2022-08-21T05:44:34.022Z,99.99
2022-08-21T05:45:42.905Z,99.99
2022-08-21T05:46:34.018Z,99.99
2022-08-21T05:47:34.007Z,99.99
2022-08-21T05:48:34.017Z,99.99
2022-08-21T05:49:34.028Z,99.99
2022-08-21T05:50:33.970Z,99.99
2022-08-21T05:51:33.983Z,99.99
2022-08-21T05:52:33.971Z,99.99
2022-08-21T05:53:33.952Z,99.99
2022-08-21T05:54:33.942Z,99.99
2022-08-21T05:55:34.109Z,99.99
2022-08-21T05:56:33.937Z,99.99
2022-08-21T05:57:33.960Z,99.99
2022-08-21T05:58:33.945Z,99.99
2022-08-21T05:59:33.957Z,99.99
2022-08-21T06:00:33.914Z,99.99
2022-08-21T06:01:33.968Z,99.99
2022-08-21T06:02:33.906Z,99.99
2022-08-21T06:03:33.899Z,99.99
2022-08-21T06:04:33.892Z,99.99
2022-08-21T06:05:37.208Z,99.99
2022-08-21T06:06:33.904Z,99.99
2022-08-21T06:07:33.885Z,99.99
2022-08-21T06:08:33.896Z,99.99
2022-08-21T06:09:33.881Z,99.99
2022-08-21T06:10:33.893Z,99.99
2022-08-21T06:11:33.908Z,99.99
2022-08-21T06:12:33.887Z,99.99
2022-08-21T06:13:33.870Z,99.99
2022-08-21T06:14:33.861Z,99.99
2022-08-21T06:15:33.863Z,99.99
2022-08-21T06:16:33.849Z,99.99
2022-08-21T06:17:33.834Z,99.99
2022-08-21T06:18:33.856Z,99.99
2022-08-21T06:19:33.823Z,99.99
2022-08-21T06:20:33.840Z,99.99
2022-08-21T06:21:33.829Z,99.99
2022-08-21T06:22:33.846Z,99.99
2022-08-21T06:23:33.822Z,99.99
2022-08-21T06:24:33.797Z,99.99
2022-08-21T06:25:33.799Z,99.99
2022-08-21T06:26:33.813Z,99.99
2022-08-21T06:27:33.823Z,99.99
2022-08-21T06:28:33.787Z,99.99
2022-08-21T06:29:44.571Z,99.99
2022-08-21T06:30:33.790Z,99.99
2022-08-21T06:31:33.765Z,99.99
2022-08-21T06:32:33.762Z,99.99
2022-08-21T06:33:33.764Z,99.99
2022-08-21T06:34:33.768Z,99.99
2022-08-21T06:35:33.818Z,99.99
2022-08-21T06:36:33.767Z,99.99
2022-08-21T06:37:33.736Z,99.99
2022-08-21T06:38:33.750Z,99.99
2022-08-21T06:39:33.741Z,99.99
2022-08-21T06:40:34.978Z,99.99
2022-08-21T06:41:37.811Z,99.99
2022-08-21T06:42:33.741Z,99.99
2022-08-21T06:43:39.433Z,99.99
2022-08-21T06:44:33.736Z,99.99
2022-08-21T06:45:33.723Z,99.99
2022-08-21T06:46:33.702Z,99.99
2022-08-21T06:47:33.701Z,99.99
2022-08-21T06:48:33.738Z,99.99
2022-08-21T06:49:33.696Z,99.99
2022-08-21T06:50:33.682Z,99.99
2022-08-21T06:51:33.693Z,99.99
2022-08-21T06:52:33.672Z,99.99
2022-08-21T06:53:33.682Z,99.99
2022-08-21T06:54:33.704Z,99.99
2022-08-21T06:55:33.661Z,99.99
2022-08-21T06:56:33.670Z,99.99
2022-08-21T06:57:33.666Z,99.99
2022-08-21T06:58:33.659Z,99.99
2022-08-21T06:59:33.643Z,99.93
2022-08-21T07:00:33.652Z,99.02
2022-08-21T07:01:33.653Z,97.47
2022-08-21T07:02:33.634Z,97.38
2022-08-21T07:03:33.650Z,96.75
2022-08-21T07:04:33.624Z,96.27
2022-08-21T07:05:33.631Z,96.70
2022-08-21T07:06:33.959Z,96.12
2022-08-21T07:07:33.613Z,94.82
2022-08-21T07:08:33.633Z,95.98
2022-08-21T07:09:33.643Z,96.08
2022-08-21T07:10:33.634Z,95.16
2022-08-21T07:11:42.415Z,94.48
2022-08-21T07:12:33.599Z,94.53
2022-08-21T07:13:33.625Z,93.80
2022-08-21T07:14:33.614Z,92.84
2022-08-21T07:15:33.616Z,92.36
2022-08-21T07:16:33.612Z,91.78
2022-08-21T07:17:33.587Z,92.08
2022-08-21T07:18:33.603Z,93.85
2022-08-21T07:19:33.585Z,93.71
2022-08-21T07:20:33.612Z,93.52
2022-08-21T07:21:33.589Z,92.99
2022-08-21T07:22:33.598Z,92.80
2022-08-21T07:23:33.583Z,92.50
2022-08-21T07:24:33.582Z,92.16
2022-08-21T07:25:33.592Z,91.59
2022-08-21T07:26:33.589Z,91.59
2022-08-21T07:27:33.576Z,91.49
2022-08-21T07:28:33.597Z,91.01
2022-08-21T07:29:33.619Z,91.83
2022-08-21T07:30:33.574Z,91.35
2022-08-21T07:31:33.565Z,90.77
2022-08-21T07:32:33.580Z,90.91
2022-08-21T07:33:33.579Z,90.52
2022-08-21T07:34:33.593Z,89.65
2022-08-21T07:35:33.589Z,88.97
2022-08-21T07:36:33.559Z,88.68
2022-08-21T07:37:33.561Z,88.43
2022-08-21T07:38:33.571Z,87.66
2022-08-21T07:39:33.588Z,87.47
2022-08-21T07:40:33.606Z,87.66
2022-08-21T07:41:33.558Z,87.08
2022-08-21T07:42:33.562Z,88.43
2022-08-21T07:43:33.578Z,88.49
2022-08-21T07:44:33.571Z,88.39
2022-08-21T07:45:33.598Z,88.59
2022-08-21T07:46:33.590Z,89.11
2022-08-21T07:47:42.082Z,88.68
2022-08-21T07:48:33.575Z,88.68
2022-08-21T07:49:33.566Z,88.97
2022-08-21T07:50:33.604Z,89.22
2022-08-21T07:51:33.584Z,89.89
2022-08-21T07:52:33.572Z,90.09
2022-08-21T07:53:33.559Z,89.94
2022-08-21T07:54:34.601Z,88.83
2022-08-21T07:55:33.578Z,89.45
2022-08-21T07:56:33.574Z,89.75
2022-08-21T07:57:33.569Z,89.36
2022-08-21T07:58:33.557Z,88.87
2022-08-21T07:59:33.606Z,88.68
2022-08-21T08:00:33.633Z,88.10
2022-08-21T08:01:33.625Z,88.20
2022-08-21T08:02:33.594Z,87.85
2022-08-21T08:03:33.607Z,87.71
2022-08-21T08:04:33.605Z,88.63
2022-08-21T08:05:33.604Z,87.95
2022-08-21T08:06:33.587Z,87.76
2022-08-21T08:07:33.605Z,86.16
2022-08-21T08:08:33.593Z,85.83
2022-08-21T08:09:33.580Z,85.87
2022-08-21T08:10:33.607Z,86.65
2022-08-21T08:11:33.612Z,86.20
2022-08-21T08:12:33.618Z,85.62
2022-08-21T08:13:33.613Z,83.98
2022-08-21T08:14:33.596Z,83.73
2022-08-21T08:15:37.481Z,83.63
2022-08-21T08:16:33.597Z,83.34
2022-08-21T08:17:33.597Z,83.11
2022-08-21T08:18:33.592Z,83.88
2022-08-21T08:19:33.600Z,83.01
2022-08-21T08:20:33.599Z,83.30
2022-08-21T08:21:33.611Z,83.69
2022-08-21T08:22:33.622Z,83.88
2022-08-21T08:23:33.632Z,83.69
2022-08-21T08:24:33.627Z,83.98
2022-08-21T08:25:36.480Z,82.53
2022-08-21T08:26:33.631Z,83.44
2022-08-21T08:27:33.657Z,82.86
2022-08-21T08:28:33.622Z,82.66
2022-08-21T08:29:33.622Z,83.00
2022-08-21T08:30:33.625Z,82.60
2022-08-21T08:31:33.655Z,81.25
2022-08-21T08:32:33.645Z,81.35
2022-08-21T08:33:33.630Z,81.25
2022-08-21T08:34:33.635Z,81.54
2022-08-21T08:35:33.647Z,81.54
2022-08-21T08:36:33.649Z,81.25
2022-08-21T08:37:34.612Z,80.87
2022-08-21T08:38:33.673Z,81.83
2022-08-21T08:39:33.693Z,80.80
2022-08-21T08:40:33.661Z,81.10
2022-08-21T08:41:33.686Z,81.29
2022-08-21T08:42:34.726Z,79.32
2022-08-21T08:43:33.714Z,80.42
2022-08-21T08:44:33.676Z,81.39
2022-08-21T08:45:33.677Z,80.32
2022-08-21T08:46:33.700Z,80.62
2022-08-21T08:47:33.709Z,80.03
2022-08-21T08:48:33.690Z,80.36
2022-08-21T08:49:33.705Z,79.06
2022-08-21T08:50:33.694Z,78.52
2022-08-21T08:51:33.738Z,79.88
2022-08-21T08:52:33.730Z,78.75
2022-08-21T08:53:33.738Z,79.24
2022-08-21T08:54:33.724Z,77.92
2022-08-21T08:55:33.730Z,76.72
2022-08-21T08:56:33.732Z,77.43
2022-08-21T08:57:33.735Z,76.65
2022-08-21T08:58:33.756Z,76.95
2022-08-21T08:59:33.759Z,76.65
2022-08-21T09:00:33.778Z,76.17
2022-08-21T09:01:38.609Z,75.82
2022-08-21T09:02:33.868Z,75.53
2022-08-21T09:03:33.809Z,75.08
2022-08-21T09:04:33.867Z,73.91
2022-08-21T09:05:33.776Z,74.21
2022-08-21T09:06:33.826Z,73.62
2022-08-21T09:07:33.774Z,73.95
2022-08-21T09:08:33.840Z,72.59
2022-08-21T09:09:33.797Z,73.18
2022-08-21T09:10:33.869Z,73.08
2022-08-21T09:11:33.903Z,72.33
2022-08-21T09:12:33.946Z,72.14
2022-08-21T09:13:38.377Z,71.94
2022-08-21T09:14:33.970Z,70.29
2022-08-21T09:15:33.879Z,70.87
2022-08-21T09:16:33.909Z,71.07
2022-08-21T09:17:33.832Z,69.71
2022-08-21T09:18:33.908Z,70.62
2022-08-21T09:19:33.913Z,69.84
2022-08-21T09:20:33.888Z,69.55
2022-08-21T09:21:34.087Z,68.96
2022-08-21T09:22:33.940Z,68.80
2022-08-21T09:23:33.920Z,68.71
2022-08-21T09:24:33.884Z,69.10
2022-08-21T09:25:33.952Z,69.03
2022-08-21T09:26:33.896Z,67.35
2022-08-21T09:27:34.017Z,68.05
2022-08-21T09:28:33.969Z,69.32
2022-08-21T09:29:33.912Z,69.32
2022-08-21T09:30:33.980Z,69.51
2022-08-21T09:31:33.995Z,68.64
2022-08-21T09:32:37.655Z,69.19
2022-08-21T09:33:33.958Z,69.38
2022-08-21T09:34:33.993Z,69.96
2022-08-21T09:35:33.973Z,70.78
2022-08-21T09:36:34.053Z,69.09
2022-08-21T09:37:34.011Z,70.39
2022-08-21T09:38:34.041Z,71.11
2022-08-21T09:39:39.926Z,70.42
2022-08-21T09:40:34.188Z,69.87
2022-08-21T09:41:34.062Z,68.74
2022-08-21T09:42:34.109Z,69.03
2022-08-21T09:43:34.143Z,68.29
2022-08-21T09:44:34.101Z,68.09
2022-08-21T09:45:34.315Z,67.64
2022-08-21T09:46:34.131Z,67.15
2022-08-21T09:47:34.124Z,65.69
2022-08-21T09:48:34.156Z,66.37
2022-08-21T09:49:34.121Z,66.31
2022-08-21T09:50:34.104Z,66.21
2022-08-21T09:51:34.137Z,65.69
2022-08-21T09:52:34.165Z,65.72
2022-08-21T09:53:36.093Z,65.82
2022-08-21T09:54:34.163Z,64.84
2022-08-21T09:55:34.275Z,64.45
2022-08-21T09:56:34.159Z,65.11
2022-08-21T09:57:34.162Z,65.43
2022-08-21T09:58:34.188Z,65.04
2022-08-21T09:59:36.866Z,64.55
2022-08-21T10:00:34.212Z,63.84
2022-08-21T10:01:34.186Z,64.81
2022-08-21T10:02:34.198Z,65.69
2022-08-21T10:03:34.326Z,64.84
2022-08-21T10:04:34.321Z,64.58
2022-08-21T10:05:34.269Z,64.06
2022-08-21T10:06:34.216Z,64.58
2022-08-21T10:07:34.271Z,64.09
2022-08-21T10:08:34.297Z,63.60
2022-08-21T10:09:34.255Z,63.24
2022-08-21T10:10:34.285Z,63.93
2022-08-21T10:11:34.290Z,63.24
2022-08-21T10:12:34.388Z,63.15
2022-08-21T10:13:34.367Z,63.09
2022-08-21T10:14:34.356Z,62.60
2022-08-21T10:15:34.327Z,62.60
2022-08-21T10:16:34.306Z,62.11
2022-08-21T10:17:34.336Z,62.60
2022-08-21T10:18:34.347Z,61.91
2022-08-21T10:19:34.442Z,61.35
2022-08-21T10:20:34.421Z,61.82
2022-08-21T10:21:34.368Z,61.74
2022-08-21T10:22:34.397Z,60.96
2022-08-21T10:23:34.402Z,60.67
2022-08-21T10:24:34.430Z,60.77
2022-08-21T10:25:34.450Z,60.77
2022-08-21T10:26:35.032Z,60.77
2022-08-21T10:27:34.434Z,60.21
2022-08-21T10:28:34.482Z,61.19
2022-08-21T10:29:34.528Z,59.95
2022-08-21T10:30:34.494Z,59.85
2022-08-21T10:31:34.473Z,59.95
2022-08-21T10:32:34.564Z,59.33
2022-08-21T10:33:34.498Z,60.11
2022-08-21T10:34:34.536Z,59.69
2022-08-21T10:35:34.497Z,61.19
2022-08-21T10:36:34.496Z,60.70
2022-08-21T10:37:34.594Z,60.73
2022-08-21T10:38:52.684Z,60.83
2022-08-21T10:39:36.081Z,59.85
2022-08-21T10:40:34.635Z,59.78
2022-08-21T10:41:34.586Z,58.51
2022-08-21T10:42:34.622Z,58.51
2022-08-21T10:43:34.625Z,58.64
2022-08-21T10:44:34.630Z,57.04
2022-08-21T10:45:34.593Z,58.51
2022-08-21T10:46:34.620Z,58.83
2022-08-21T10:47:34.614Z,57.66
2022-08-21T10:48:34.627Z,56.77
2022-08-21T10:49:34.688Z,56.58
2022-08-21T10:50:34.685Z,56.97
2022-08-21T10:51:34.707Z,55.96
2022-08-21T10:52:34.701Z,55.96
2022-08-21T10:53:34.689Z,55.38
2022-08-21T10:54:34.773Z,55.91
2022-08-21T10:55:34.712Z,57.28
2022-08-21T10:56:34.800Z,57.57
2022-08-21T10:57:34.743Z,57.18
2022-08-21T10:58:34.752Z,56.99
2022-08-21T10:59:38.627Z,57.11
2022-08-21T11:00:34.806Z,57.09
2022-08-21T11:01:34.773Z,57.01
2022-08-21T11:02:34.771Z,56.95
2022-08-21T11:03:34.786Z,56.36
2022-08-21T11:04:46.320Z,56.95
2022-08-21T11:05:34.819Z,55.96
2022-08-21T11:06:34.826Z,56.75
2022-08-21T11:07:34.834Z,56.87
2022-08-21T11:08:34.841Z,55.60
2022-08-21T11:09:34.858Z,53.94
2022-08-21T11:10:35.027Z,54.43
2022-08-21T11:11:36.117Z,55.31
2022-08-21T11:12:34.893Z,54.82
2022-08-21T11:13:34.921Z,54.50
2022-08-21T11:14:34.902Z,55.47
2022-08-21T11:15:34.915Z,55.47
2022-08-21T11:16:34.951Z,55.18
2022-08-21T11:17:34.950Z,54.01
2022-08-21T11:18:34.943Z,53.88
2022-08-21T11:19:34.954Z,55.94
2022-08-21T11:20:34.968Z,55.96
2022-08-21T11:21:35.024Z,55.77
2022-08-21T11:22:35.021Z,54.69
2022-08-21T11:23:35.024Z,54.60
2022-08-21T11:24:35.012Z,54.96
2022-08-21T11:25:36.824Z,55.26
2022-08-21T11:26:35.058Z,54.81
2022-08-21T11:27:35.061Z,55.76
2022-08-21T11:28:35.051Z,57.49
2022-08-21T11:29:35.065Z,58.01
2022-08-21T11:30:35.069Z,58.20
2022-08-21T11:31:35.108Z,56.64
2022-08-21T11:32:35.098Z,57.62
2022-08-21T11:33:35.128Z,57.52
2022-08-21T11:34:35.113Z,58.52
2022-08-21T11:35:35.120Z,57.45
2022-08-21T11:36:35.128Z,58.03
2022-08-21T11:37:35.138Z,57.84
2022-08-21T11:38:35.179Z,56.76
2022-08-21T11:39:35.200Z,57.42
2022-08-21T11:40:35.221Z,57.71
2022-08-21T11:41:35.198Z,58.50
2022-08-21T11:42:35.194Z,58.01
2022-08-21T11:43:35.203Z,58.79
2022-08-21T11:44:35.231Z,58.59
2022-08-21T11:45:35.243Z,58.01
2022-08-21T11:46:35.242Z,57.62
2022-08-21T11:47:35.231Z,58.30
2022-08-21T11:48:35.270Z,58.20
2022-08-21T11:49:35.254Z,58.79
2022-08-21T11:50:36.434Z,57.91
2022-08-21T11:51:35.294Z,57.81
2022-08-21T11:52:35.281Z,58.20
2022-08-21T11:53:35.291Z,58.30
2022-08-21T11:54:35.304Z,60.22
2022-08-21T11:55:35.326Z,57.98
2022-08-21T11:56:35.330Z,57.68
2022-08-21T11:57:35.307Z,57.78
2022-08-21T11:58:35.356Z,58.50
2022-08-21T11:59:38.869Z,56.81
2022-08-21T12:00:35.341Z,57.26
2022-08-21T12:01:35.397Z,57.73
2022-08-21T12:02:35.347Z,57.89
2022-08-21T12:03:35.367Z,57.99
2022-08-21T12:04:35.357Z,58.22
2022-08-21T12:05:35.360Z,59.05
2022-08-21T12:06:35.387Z,60.63
2022-08-21T12:07:35.387Z,60.63
2022-08-21T12:08:35.404Z,60.27
2022-08-21T12:09:35.418Z,60.69
2022-08-21T12:10:35.408Z,60.30
2022-08-21T12:11:35.401Z,59.35
2022-08-21T12:12:35.457Z,59.77
2022-08-21T12:13:40.580Z,58.99
2022-08-21T12:14:35.461Z,58.99
2022-08-21T12:15:35.438Z,58.80
2022-08-21T12:16:35.448Z,59.09
2022-08-21T12:17:35.469Z,58.60
2022-08-21T12:18:35.438Z,58.02
2022-08-21T12:19:35.460Z,58.70
2022-08-21T12:20:35.465Z,59.31
2022-08-21T12:21:35.456Z,58.73
2022-08-21T12:22:35.475Z,58.73
2022-08-21T12:23:35.486Z,59.05
2022-08-21T12:24:35.473Z,58.47
2022-08-21T12:25:35.479Z,58.37
2022-08-21T12:26:35.488Z,57.39
2022-08-21T12:27:35.507Z,57.75
2022-08-21T12:28:35.489Z,57.95
2022-08-21T12:29:35.488Z,58.24
2022-08-21T12:30:35.503Z,58.73
2022-08-21T12:31:35.509Z,58.24
2022-08-21T12:32:35.521Z,58.73
2022-08-21T12:33:35.506Z,58.53
2022-08-21T12:34:35.511Z,57.75
2022-08-21T12:35:35.549Z,58.14
2022-08-21T12:36:38.713Z,58.04
2022-08-21T12:37:35.548Z,58.50
2022-08-21T12:38:35.544Z,58.31
2022-08-21T12:39:35.554Z,58.83
2022-08-21T12:40:35.559Z,58.34
2022-08-21T12:41:35.547Z,58.24
2022-08-21T12:42:35.548Z,58.83
2022-08-21T12:43:35.575Z,58.04
2022-08-21T12:44:35.565Z,57.65
2022-08-21T12:45:35.564Z,57.46
2022-08-21T12:46:35.566Z,58.37
2022-08-21T12:47:35.572Z,57.75
2022-08-21T12:48:35.584Z,58.47
2022-08-21T12:49:35.578Z,57.88
2022-08-21T12:50:35.578Z,57.00
2022-08-21T12:51:35.590Z,56.81
2022-08-21T12:52:39.180Z,56.77